sensor_id;sensor_type;location;lat;lon;timestamp;P1;durP1;ratioP1;P2;durP2;ratioP2
66860;SDS011;53770;42.334;23.550;2022-07-23T00:00:06;7.85;;;3.80;;
66860;SDS011;53770;42.334;23.550;2022-07-23T00:02:34;6.95;;;3.80;;
66860;SDS011;53770;42.334;23.550;2022-07-23T00:05:00;8.68;;;3.90;;
66860;SDS011;53770;42.334;23.550;2022-07-23T00:07:28;5.82;;;3.50;;
66860;SDS011;53770;42.334;23.550;2022-07-23T00:09:57;10.67;;;4.10;;
66860;SDS011;53770;42.334;23.550;2022-07-23T00:12:24;8.48;;;3.75;;
66860;SDS011;53770;42.334;23.550;2022-07-23T00:14:50;9.43;;;4.50;;
66860;SDS011;53770;42.334;23.550;2022-07-23T00:17:18;8.32;;;3.80;;
66860;SDS011;53770;42.334;23.550;2022-07-23T00:19:45;7.32;;;4.15;;
66860;SDS011;53770;42.334;23.550;2022-07-23T00:22:12;8.77;;;4.33;;
66860;SDS011;53770;42.334;23.550;2022-07-23T00:24:39;6.97;;;4.10;;
66860;SDS011;53770;42.334;23.550;2022-07-23T00:27:07;8.40;;;4.38;;
66860;SDS011;53770;42.334;23.550;2022-07-23T00:29:34;10.38;;;3.95;;
66860;SDS011;53770;42.334;23.550;2022-07-23T00:32:00;7.70;;;4.25;;
66860;SDS011;53770;42.334;23.550;2022-07-23T00:34:27;7.63;;;3.53;;
66860;SDS011;53770;42.334;23.550;2022-07-23T00:36:54;8.02;;;4.43;;
66860;SDS011;53770;42.334;23.550;2022-07-23T00:39:21;6.82;;;3.88;;
66860;SDS011;53770;42.334;23.550;2022-07-23T00:41:48;9.48;;;4.00;;
66860;SDS011;53770;42.334;23.550;2022-07-23T00:44:18;7.40;;;3.97;;
66860;SDS011;53770;42.334;23.550;2022-07-23T00:46:47;10.50;;;4.33;;
66860;SDS011;53770;42.334;23.550;2022-07-23T00:49:18;7.47;;;3.83;;
66860;SDS011;53770;42.334;23.550;2022-07-23T00:51:45;10.77;;;4.20;;
66860;SDS011;53770;42.334;23.550;2022-07-23T00:54:12;8.93;;;4.07;;
66860;SDS011;53770;42.334;23.550;2022-07-23T00:56:39;11.13;;;4.07;;
66860;SDS011;53770;42.334;23.550;2022-07-23T00:59:06;8.20;;;4.37;;
66860;SDS011;53770;42.334;23.550;2022-07-23T01:01:35;9.68;;;3.85;;
66860;SDS011;53770;42.334;23.550;2022-07-23T01:04:01;8.88;;;4.13;;
66860;SDS011;53770;42.334;23.550;2022-07-23T01:06:28;8.68;;;4.13;;
66860;SDS011;53770;42.334;23.550;2022-07-23T01:08:56;9.00;;;3.95;;
66860;SDS011;53770;42.334;23.550;2022-07-23T01:11:23;9.97;;;3.47;;
66860;SDS011;53770;42.334;23.550;2022-07-23T01:13:51;10.43;;;3.55;;
66860;SDS011;53770;42.334;23.550;2022-07-23T01:16:19;11.63;;;4.03;;
66860;SDS011;53770;42.334;23.550;2022-07-23T01:18:47;7.45;;;4.10;;
66860;SDS011;53770;42.334;23.550;2022-07-23T01:21:14;9.35;;;3.90;;
66860;SDS011;53770;42.334;23.550;2022-07-23T01:23:46;9.67;;;4.10;;
66860;SDS011;53770;42.334;23.550;2022-07-23T01:26:12;11.40;;;4.53;;
66860;SDS011;53770;42.334;23.550;2022-07-23T01:28:42;10.68;;;4.05;;
66860;SDS011;53770;42.334;23.550;2022-07-23T01:31:09;8.38;;;4.28;;
66860;SDS011;53770;42.334;23.550;2022-07-23T01:33:36;11.35;;;3.78;;
66860;SDS011;53770;42.334;23.550;2022-07-23T01:36:03;9.90;;;4.13;;
66860;SDS011;53770;42.334;23.550;2022-07-23T01:38:30;10.43;;;4.05;;
66860;SDS011;53770;42.334;23.550;2022-07-23T01:40:58;8.35;;;4.18;;
66860;SDS011;53770;42.334;23.550;2022-07-23T01:43:25;7.88;;;4.07;;
66860;SDS011;53770;42.334;23.550;2022-07-23T01:45:52;10.07;;;4.10;;
66860;SDS011;53770;42.334;23.550;2022-07-23T01:48:19;10.33;;;4.23;;
66860;SDS011;53770;42.334;23.550;2022-07-23T01:50:46;10.63;;;3.95;;
66860;SDS011;53770;42.334;23.550;2022-07-23T01:53:13;7.20;;;4.25;;
66860;SDS011;53770;42.334;23.550;2022-07-23T01:55:40;9.00;;;3.85;;
66860;SDS011;53770;42.334;23.550;2022-07-23T01:58:08;9.18;;;4.10;;
66860;SDS011;53770;42.334;23.550;2022-07-23T02:00:35;8.00;;;4.20;;
66860;SDS011;53770;42.334;23.550;2022-07-23T02:03:02;6.43;;;4.00;;
66860;SDS011;53770;42.334;23.550;2022-07-23T02:05:29;9.38;;;4.13;;
66860;SDS011;53770;42.334;23.550;2022-07-23T02:07:56;9.13;;;4.38;;
66860;SDS011;53770;42.334;23.550;2022-07-23T02:10:24;9.88;;;4.20;;
66860;SDS011;53770;42.334;23.550;2022-07-23T02:12:50;11.20;;;3.73;;
66860;SDS011;53770;42.334;23.550;2022-07-23T02:15:19;9.23;;;4.10;;
66860;SDS011;53770;42.334;23.550;2022-07-23T02:17:46;8.35;;;4.10;;
66860;SDS011;53770;42.334;23.550;2022-07-23T02:20:13;10.15;;;4.70;;
66860;SDS011;53770;42.334;23.550;2022-07-23T02:22:40;6.72;;;3.80;;
66860;SDS011;53770;42.334;23.550;2022-07-23T02:25:07;8.00;;;3.83;;
66860;SDS011;53770;42.334;23.550;2022-07-23T02:27:34;9.02;;;4.40;;
66860;SDS011;53770;42.334;23.550;2022-07-23T02:30:02;6.68;;;3.80;;
66860;SDS011;53770;42.334;23.550;2022-07-23T02:32:31;10.98;;;4.60;;
66860;SDS011;53770;42.334;23.550;2022-07-23T02:34:58;7.57;;;4.38;;
66860;SDS011;53770;42.334;23.550;2022-07-23T02:37:25;11.03;;;4.50;;
66860;SDS011;53770;42.334;23.550;2022-07-23T02:39:53;6.60;;;4.07;;
66860;SDS011;53770;42.334;23.550;2022-07-23T02:42:20;14.90;;;4.47;;
66860;SDS011;53770;42.334;23.550;2022-07-23T02:44:48;8.05;;;4.18;;
66860;SDS011;53770;42.334;23.550;2022-07-23T02:47:15;10.95;;;4.10;;
66860;SDS011;53770;42.334;23.550;2022-07-23T02:49:44;13.03;;;3.93;;
66860;SDS011;53770;42.334;23.550;2022-07-23T02:52:10;10.98;;;4.35;;
66860;SDS011;53770;42.334;23.550;2022-07-23T02:54:37;9.25;;;4.60;;
66860;SDS011;53770;42.334;23.550;2022-07-23T02:57:04;8.98;;;4.75;;
66860;SDS011;53770;42.334;23.550;2022-07-23T02:59:31;8.68;;;4.28;;
66860;SDS011;53770;42.334;23.550;2022-07-23T03:01:58;8.83;;;4.47;;
66860;SDS011;53770;42.334;23.550;2022-07-23T03:04:24;8.18;;;4.07;;
66860;SDS011;53770;42.334;23.550;2022-07-23T03:06:52;9.63;;;4.47;;
66860;SDS011;53770;42.334;23.550;2022-07-23T03:09:19;8.77;;;4.13;;
66860;SDS011;53770;42.334;23.550;2022-07-23T03:11:46;9.95;;;4.32;;
66860;SDS011;53770;42.334;23.550;2022-07-23T03:14:13;8.60;;;4.00;;
66860;SDS011;53770;42.334;23.550;2022-07-23T03:16:41;8.30;;;4.07;;
66860;SDS011;53770;42.334;23.550;2022-07-23T03:19:08;12.13;;;4.90;;
66860;SDS011;53770;42.334;23.550;2022-07-23T03:21:35;11.48;;;4.60;;
66860;SDS011;53770;42.334;23.550;2022-07-23T03:24:06;10.82;;;4.80;;
66860;SDS011;53770;42.334;23.550;2022-07-23T03:26:33;9.63;;;4.90;;
66860;SDS011;53770;42.334;23.550;2022-07-23T03:29:00;12.65;;;4.60;;
66860;SDS011;53770;42.334;23.550;2022-07-23T03:31:28;8.63;;;4.20;;
66860;SDS011;53770;42.334;23.550;2022-07-23T03:33:55;13.05;;;4.63;;
66860;SDS011;53770;42.334;23.550;2022-07-23T03:36:22;8.48;;;4.35;;
66860;SDS011;53770;42.334;23.550;2022-07-23T03:38:49;10.20;;;4.17;;
66860;SDS011;53770;42.334;23.550;2022-07-23T03:41:17;7.15;;;4.07;;
66860;SDS011;53770;42.334;23.550;2022-07-23T03:43:44;9.35;;;4.70;;
66860;SDS011;53770;42.334;23.550;2022-07-23T03:46:11;11.30;;;4.70;;
66860;SDS011;53770;42.334;23.550;2022-07-23T03:48:38;8.68;;;3.97;;
66860;SDS011;53770;42.334;23.550;2022-07-23T03:51:05;9.33;;;4.70;;
66860;SDS011;53770;42.334;23.550;2022-07-23T03:53:32;11.45;;;4.40;;
66860;SDS011;53770;42.334;23.550;2022-07-23T03:56:00;12.85;;;4.38;;
66860;SDS011;53770;42.334;23.550;2022-07-23T03:58:28;9.23;;;4.18;;
66860;SDS011;53770;42.334;23.550;2022-07-23T04:00:55;10.63;;;4.20;;
66860;SDS011;53770;42.334;23.550;2022-07-23T04:03:21;10.67;;;4.23;;
66860;SDS011;53770;42.334;23.550;2022-07-23T04:05:48;9.45;;;4.03;;
66860;SDS011;53770;42.334;23.550;2022-07-23T04:08:15;9.68;;;4.63;;
66860;SDS011;53770;42.334;23.550;2022-07-23T04:10:42;9.60;;;4.55;;
66860;SDS011;53770;42.334;23.550;2022-07-23T04:13:09;8.70;;;4.30;;
66860;SDS011;53770;42.334;23.550;2022-07-23T04:15:37;14.30;;;4.67;;
66860;SDS011;53770;42.334;23.550;2022-07-23T04:18:04;13.10;;;4.75;;
66860;SDS011;53770;42.334;23.550;2022-07-23T04:20:31;13.38;;;4.70;;
66860;SDS011;53770;42.334;23.550;2022-07-23T04:22:57;11.00;;;4.45;;
66860;SDS011;53770;42.334;23.550;2022-07-23T04:25:24;12.95;;;4.30;;
66860;SDS011;53770;42.334;23.550;2022-07-23T04:27:51;11.43;;;4.27;;
66860;SDS011;53770;42.334;23.550;2022-07-23T04:30:18;11.15;;;4.93;;
66860;SDS011;53770;42.334;23.550;2022-07-23T04:32:46;11.30;;;4.63;;
66860;SDS011;53770;42.334;23.550;2022-07-23T04:35:13;7.82;;;4.40;;
66860;SDS011;53770;42.334;23.550;2022-07-23T04:37:40;8.70;;;4.60;;
66860;SDS011;53770;42.334;23.550;2022-07-23T04:40:07;8.33;;;4.40;;
66860;SDS011;53770;42.334;23.550;2022-07-23T04:42:35;10.43;;;4.43;;
66860;SDS011;53770;42.334;23.550;2022-07-23T04:45:02;8.85;;;4.80;;
66860;SDS011;53770;42.334;23.550;2022-07-23T04:47:29;9.05;;;3.92;;
66860;SDS011;53770;42.334;23.550;2022-07-23T04:49:58;13.90;;;5.05;;
66860;SDS011;53770;42.334;23.550;2022-07-23T04:52:24;11.40;;;4.33;;
66860;SDS011;53770;42.334;23.550;2022-07-23T04:54:51;9.55;;;4.25;;
66860;SDS011;53770;42.334;23.550;2022-07-23T04:57:18;11.13;;;4.80;;
66860;SDS011;53770;42.334;23.550;2022-07-23T04:59:45;10.80;;;4.32;;
66860;SDS011;53770;42.334;23.550;2022-07-23T05:02:12;9.98;;;4.88;;
66860;SDS011;53770;42.334;23.550;2022-07-23T05:04:38;10.47;;;4.03;;
66860;SDS011;53770;42.334;23.550;2022-07-23T05:07:06;10.10;;;4.63;;
66860;SDS011;53770;42.334;23.550;2022-07-23T05:09:33;10.80;;;4.28;;
66860;SDS011;53770;42.334;23.550;2022-07-23T05:12:00;13.18;;;5.22;;
66860;SDS011;53770;42.334;23.550;2022-07-23T05:14:27;12.07;;;5.18;;
66860;SDS011;53770;42.334;23.550;2022-07-23T05:16:54;9.23;;;4.17;;
66860;SDS011;53770;42.334;23.550;2022-07-23T05:19:21;12.45;;;4.95;;
66860;SDS011;53770;42.334;23.550;2022-07-23T05:21:48;8.38;;;4.40;;
66860;SDS011;53770;42.334;23.550;2022-07-23T05:24:16;10.00;;;4.35;;
66860;SDS011;53770;42.334;23.550;2022-07-23T05:26:42;9.93;;;4.18;;
66860;SDS011;53770;42.334;23.550;2022-07-23T05:29:09;9.43;;;5.07;;
66860;SDS011;53770;42.334;23.550;2022-07-23T05:31:36;11.75;;;4.47;;
66860;SDS011;53770;42.334;23.550;2022-07-23T05:34:03;10.27;;;4.45;;
66860;SDS011;53770;42.334;23.550;2022-07-23T05:36:30;10.07;;;4.40;;
66860;SDS011;53770;42.334;23.550;2022-07-23T05:38:58;11.82;;;4.75;;
66860;SDS011;53770;42.334;23.550;2022-07-23T05:41:26;8.70;;;4.27;;
66860;SDS011;53770;42.334;23.550;2022-07-23T05:43:53;10.35;;;4.78;;
66860;SDS011;53770;42.334;23.550;2022-07-23T05:46:20;11.65;;;6.03;;
66860;SDS011;53770;42.334;23.550;2022-07-23T05:48:47;11.50;;;5.95;;
66860;SDS011;53770;42.334;23.550;2022-07-23T05:51:18;11.63;;;4.90;;
66860;SDS011;53770;42.334;23.550;2022-07-23T05:53:46;13.17;;;4.80;;
66860;SDS011;53770;42.334;23.550;2022-07-23T05:56:13;11.10;;;4.72;;
66860;SDS011;53770;42.334;23.550;2022-07-23T05:58:41;8.52;;;4.13;;
66860;SDS011;53770;42.334;23.550;2022-07-23T06:01:08;9.85;;;4.20;;
66860;SDS011;53770;42.334;23.550;2022-07-23T06:03:36;8.30;;;4.53;;
66860;SDS011;53770;42.334;23.550;2022-07-23T06:06:03;10.13;;;4.50;;
66860;SDS011;53770;42.334;23.550;2022-07-23T06:08:30;12.45;;;4.72;;
66860;SDS011;53770;42.334;23.550;2022-07-23T06:10:57;8.68;;;4.40;;
66860;SDS011;53770;42.334;23.550;2022-07-23T06:13:24;8.70;;;4.38;;
66860;SDS011;53770;42.334;23.550;2022-07-23T06:15:52;8.25;;;4.18;;
66860;SDS011;53770;42.334;23.550;2022-07-23T06:18:19;8.73;;;3.83;;
66860;SDS011;53770;42.334;23.550;2022-07-23T06:20:46;9.52;;;4.80;;
66860;SDS011;53770;42.334;23.550;2022-07-23T06:23:13;15.45;;;4.93;;
66860;SDS011;53770;42.334;23.550;2022-07-23T06:25:39;9.82;;;4.45;;
66860;SDS011;53770;42.334;23.550;2022-07-23T06:28:06;11.50;;;5.38;;
66860;SDS011;53770;42.334;23.550;2022-07-23T06:30:33;9.13;;;4.60;;
66860;SDS011;53770;42.334;23.550;2022-07-23T06:33:01;11.30;;;4.25;;
66860;SDS011;53770;42.334;23.550;2022-07-23T06:35:28;9.20;;;4.63;;
66860;SDS011;53770;42.334;23.550;2022-07-23T06:37:55;9.90;;;4.13;;
66860;SDS011;53770;42.334;23.550;2022-07-23T06:40:21;7.45;;;4.80;;
66860;SDS011;53770;42.334;23.550;2022-07-23T06:42:48;9.53;;;4.30;;
66860;SDS011;53770;42.334;23.550;2022-07-23T06:45:15;6.70;;;4.22;;
66860;SDS011;53770;42.334;23.550;2022-07-23T06:47:42;9.18;;;4.43;;
66860;SDS011;53770;42.334;23.550;2022-07-23T06:50:10;9.18;;;5.15;;
66860;SDS011;53770;42.334;23.550;2022-07-23T06:52:37;8.93;;;4.53;;
66860;SDS011;53770;42.334;23.550;2022-07-23T06:55:04;11.97;;;4.27;;
66860;SDS011;53770;42.334;23.550;2022-07-23T06:57:31;12.50;;;4.28;;
66860;SDS011;53770;42.334;23.550;2022-07-23T06:59:58;10.50;;;4.10;;
66860;SDS011;53770;42.334;23.550;2022-07-23T07:02:25;8.52;;;4.03;;
66860;SDS011;53770;42.334;23.550;2022-07-23T07:04:51;9.23;;;4.25;;
66860;SDS011;53770;42.334;23.550;2022-07-23T07:07:19;9.77;;;3.93;;
66860;SDS011;53770;42.334;23.550;2022-07-23T07:09:46;10.63;;;4.07;;
66860;SDS011;53770;42.334;23.550;2022-07-23T07:12:13;8.98;;;4.75;;
66860;SDS011;53770;42.334;23.550;2022-07-23T07:14:40;9.93;;;4.18;;
66860;SDS011;53770;42.334;23.550;2022-07-23T07:17:07;11.40;;;4.43;;
66860;SDS011;53770;42.334;23.550;2022-07-23T07:19:35;10.60;;;4.47;;
66860;SDS011;53770;42.334;23.550;2022-07-23T07:22:02;8.95;;;4.47;;
66860;SDS011;53770;42.334;23.550;2022-07-23T07:24:30;7.63;;;4.47;;
66860;SDS011;53770;42.334;23.550;2022-07-23T07:26:57;10.63;;;5.15;;
66860;SDS011;53770;42.334;23.550;2022-07-23T07:29:24;9.10;;;4.60;;
66860;SDS011;53770;42.334;23.550;2022-07-23T07:31:50;7.70;;;4.47;;
66860;SDS011;53770;42.334;23.550;2022-07-23T07:34:17;8.48;;;4.60;;
66860;SDS011;53770;42.334;23.550;2022-07-23T07:36:44;9.50;;;4.38;;
66860;SDS011;53770;42.334;23.550;2022-07-23T07:39:11;11.77;;;4.97;;
66860;SDS011;53770;42.334;23.550;2022-07-23T07:41:39;8.38;;;5.00;;
66860;SDS011;53770;42.334;23.550;2022-07-23T07:44:06;12.77;;;4.77;;
66860;SDS011;53770;42.334;23.550;2022-07-23T07:46:32;10.15;;;4.80;;
66860;SDS011;53770;42.334;23.550;2022-07-23T07:48:59;9.30;;;4.82;;
66860;SDS011;53770;42.334;23.550;2022-07-23T07:51:26;10.38;;;5.43;;
66860;SDS011;53770;42.334;23.550;2022-07-23T07:53:53;11.93;;;4.30;;
66860;SDS011;53770;42.334;23.550;2022-07-23T07:56:20;7.27;;;4.07;;
66860;SDS011;53770;42.334;23.550;2022-07-23T07:58:48;10.93;;;4.35;;
66860;SDS011;53770;42.334;23.550;2022-07-23T08:01:15;10.23;;;4.47;;
66860;SDS011;53770;42.334;23.550;2022-07-23T08:03:44;10.48;;;3.90;;
66860;SDS011;53770;42.334;23.550;2022-07-23T08:06:11;8.23;;;4.35;;
66860;SDS011;53770;42.334;23.550;2022-07-23T08:08:38;11.03;;;3.77;;
66860;SDS011;53770;42.334;23.550;2022-07-23T08:11:04;9.30;;;4.03;;
66860;SDS011;53770;42.334;23.550;2022-07-23T08:13:31;11.65;;;5.05;;
66860;SDS011;53770;42.334;23.550;2022-07-23T08:15:59;11.65;;;4.93;;
66860;SDS011;53770;42.334;23.550;2022-07-23T08:18:26;11.80;;;5.07;;
66860;SDS011;53770;42.334;23.550;2022-07-23T08:20:53;10.90;;;4.40;;
66860;SDS011;53770;42.334;23.550;2022-07-23T08:23:20;8.88;;;5.38;;
66860;SDS011;53770;42.334;23.550;2022-07-23T08:25:46;9.88;;;4.65;;
66860;SDS011;53770;42.334;23.550;2022-07-23T08:28:14;12.00;;;4.72;;
66860;SDS011;53770;42.334;23.550;2022-07-23T08:30:42;6.57;;;4.10;;
66860;SDS011;53770;42.334;23.550;2022-07-23T08:33:13;10.23;;;4.50;;
66860;SDS011;53770;42.334;23.550;2022-07-23T08:35:42;11.50;;;4.47;;
66860;SDS011;53770;42.334;23.550;2022-07-23T08:38:12;10.52;;;4.80;;
66860;SDS011;53770;42.334;23.550;2022-07-23T08:40:40;9.18;;;4.13;;
66860;SDS011;53770;42.334;23.550;2022-07-23T08:43:09;8.50;;;4.50;;
66860;SDS011;53770;42.334;23.550;2022-07-23T08:45:38;9.27;;;4.30;;
66860;SDS011;53770;42.334;23.550;2022-07-23T08:48:07;9.77;;;4.78;;
66860;SDS011;53770;42.334;23.550;2022-07-23T08:50:38;11.10;;;4.40;;
66860;SDS011;53770;42.334;23.550;2022-07-23T08:53:09;7.35;;;4.60;;
66860;SDS011;53770;42.334;23.550;2022-07-23T08:55:36;12.93;;;4.95;;
66860;SDS011;53770;42.334;23.550;2022-07-23T08:58:03;10.33;;;4.73;;
66860;SDS011;53770;42.334;23.550;2022-07-23T09:00:30;8.95;;;4.65;;
66860;SDS011;53770;42.334;23.550;2022-07-23T09:02:58;11.18;;;4.72;;
66860;SDS011;53770;42.334;23.550;2022-07-23T09:05:25;9.35;;;4.80;;
66860;SDS011;53770;42.334;23.550;2022-07-23T09:08:04;10.60;;;4.38;;
66860;SDS011;53770;42.334;23.550;2022-07-23T09:10:45;10.17;;;4.27;;
66860;SDS011;53770;42.334;23.550;2022-07-23T09:13:23;9.18;;;4.68;;
66860;SDS011;53770;42.334;23.550;2022-07-23T09:16:01;9.20;;;4.82;;
66860;SDS011;53770;42.334;23.550;2022-07-23T09:18:33;10.82;;;5.05;;
66860;SDS011;53770;42.334;23.550;2022-07-23T09:23:55;9.70;;;4.77;;
66860;SDS011;53770;42.334;23.550;2022-07-23T09:26:34;10.23;;;4.50;;
66860;SDS011;53770;42.334;23.550;2022-07-23T09:29:03;10.10;;;5.18;;
66860;SDS011;53770;42.334;23.550;2022-07-23T09:31:33;16.88;;;5.00;;
66860;SDS011;53770;42.334;23.550;2022-07-23T09:34:11;9.88;;;5.57;;
66860;SDS011;53770;42.334;23.550;2022-07-23T09:36:40;12.53;;;4.93;;
66860;SDS011;53770;42.334;23.550;2022-07-23T09:39:10;12.32;;;5.43;;
66860;SDS011;53770;42.334;23.550;2022-07-23T09:41:39;8.00;;;5.00;;
66860;SDS011;53770;42.334;23.550;2022-07-23T09:44:09;12.82;;;5.47;;
66860;SDS011;53770;42.334;23.550;2022-07-23T09:46:37;11.52;;;5.80;;
66860;SDS011;53770;42.334;23.550;2022-07-23T09:49:16;10.17;;;5.60;;
66860;SDS011;53770;42.334;23.550;2022-07-23T09:51:45;10.63;;;5.38;;
66860;SDS011;53770;42.334;23.550;2022-07-23T09:54:21;13.93;;;6.20;;
66860;SDS011;53770;42.334;23.550;2022-07-23T09:56:55;14.02;;;5.70;;
66860;SDS011;53770;42.334;23.550;2022-07-23T09:59:24;12.85;;;6.53;;
66860;SDS011;53770;42.334;23.550;2022-07-23T10:01:53;11.60;;;6.20;;
66860;SDS011;53770;42.334;23.550;2022-07-23T10:04:21;13.95;;;7.00;;
66860;SDS011;53770;42.334;23.550;2022-07-23T10:06:50;14.13;;;7.85;;
66860;SDS011;53770;42.334;23.550;2022-07-23T10:09:22;11.35;;;6.50;;
66860;SDS011;53770;42.334;23.550;2022-07-23T10:11:50;13.15;;;7.75;;
66860;SDS011;53770;42.334;23.550;2022-07-23T10:14:20;13.90;;;7.17;;
66860;SDS011;53770;42.334;23.550;2022-07-23T10:16:47;11.90;;;7.78;;
66860;SDS011;53770;42.334;23.550;2022-07-23T10:19:14;18.55;;;8.00;;
66860;SDS011;53770;42.334;23.550;2022-07-23T10:21:42;15.95;;;8.38;;
66860;SDS011;53770;42.334;23.550;2022-07-23T10:24:16;13.75;;;9.20;;
66860;SDS011;53770;42.334;23.550;2022-07-23T10:26:58;13.97;;;8.77;;
66860;SDS011;53770;42.334;23.550;2022-07-23T10:29:41;14.57;;;8.95;;
66860;SDS011;53770;42.334;23.550;2022-07-23T10:32:15;15.23;;;9.82;;
66860;SDS011;53770;42.334;23.550;2022-07-23T10:34:50;13.10;;;9.95;;
66860;SDS011;53770;42.334;23.550;2022-07-23T10:37:26;12.50;;;10.93;;
66860;SDS011;53770;42.334;23.550;2022-07-23T10:40:13;14.70;;;11.77;;
66860;SDS011;53770;42.334;23.550;2022-07-23T10:42:42;13.73;;;12.32;;
66860;SDS011;53770;42.334;23.550;2022-07-23T10:50:40;19.23;;;14.98;;
66860;SDS011;53770;42.334;23.550;2022-07-23T10:53:09;17.30;;;15.70;;
66860;SDS011;53770;42.334;23.550;2022-07-23T10:55:41;19.17;;;17.55;;
66860;SDS011;53770;42.334;23.550;2022-07-23T10:58:09;20.73;;;18.75;;
66860;SDS011;53770;42.334;23.550;2022-07-23T11:00:36;18.90;;;17.10;;
66860;SDS011;53770;42.334;23.550;2022-07-23T11:03:04;23.52;;;21.30;;
66860;SDS011;53770;42.334;23.550;2022-07-23T11:05:39;23.20;;;21.10;;
66860;SDS011;53770;42.334;23.550;2022-07-23T11:08:15;24.65;;;22.40;;
66860;SDS011;53770;42.334;23.550;2022-07-23T11:10:49;25.33;;;22.92;;
66860;SDS011;53770;42.334;23.550;2022-07-23T11:16:16;27.60;;;25.20;;
66860;SDS011;53770;42.334;23.550;2022-07-23T11:19:04;25.73;;;23.50;;
66860;SDS011;53770;42.334;23.550;2022-07-23T11:21:44;28.13;;;25.88;;
66860;SDS011;53770;42.334;23.550;2022-07-23T11:24:20;27.27;;;25.10;;
66860;SDS011;53770;42.334;23.550;2022-07-23T11:27:00;29.35;;;26.33;;
66860;SDS011;53770;42.334;23.550;2022-07-23T11:29:38;31.15;;;28.45;;
66860;SDS011;53770;42.334;23.550;2022-07-23T11:32:20;31.17;;;28.60;;
66860;SDS011;53770;42.334;23.550;2022-07-23T11:34:50;29.02;;;26.58;;
66860;SDS011;53770;42.334;23.550;2022-07-23T11:37:32;32.03;;;29.63;;
66860;SDS011;53770;42.334;23.550;2022-07-23T11:40:00;34.35;;;31.60;;
66860;SDS011;53770;42.334;23.550;2022-07-23T11:42:29;34.25;;;31.63;;
66860;SDS011;53770;42.334;23.550;2022-07-23T11:44:56;35.03;;;32.00;;
66860;SDS011;53770;42.334;23.550;2022-07-23T11:47:23;34.20;;;31.42;;
66860;SDS011;53770;42.334;23.550;2022-07-23T11:49:51;35.70;;;33.10;;
66860;SDS011;53770;42.334;23.550;2022-07-23T11:52:19;34.63;;;32.13;;
66860;SDS011;53770;42.334;23.550;2022-07-23T11:54:47;36.28;;;33.53;;
66860;SDS011;53770;42.334;23.550;2022-07-23T11:57:15;39.27;;;36.30;;
66860;SDS011;53770;42.334;23.550;2022-07-23T11:59:44;39.55;;;36.25;;
66860;SDS011;53770;42.334;23.550;2022-07-23T12:02:13;39.75;;;36.70;;
66860;SDS011;53770;42.334;23.550;2022-07-23T12:04:40;40.60;;;37.55;;
66860;SDS011;53770;42.334;23.550;2022-07-23T12:07:22;43.42;;;40.22;;
66860;SDS011;53770;42.334;23.550;2022-07-23T12:09:50;41.97;;;38.63;;
66860;SDS011;53770;42.334;23.550;2022-07-23T12:12:17;40.63;;;37.40;;
66860;SDS011;53770;42.334;23.550;2022-07-23T12:14:49;44.05;;;40.58;;
66860;SDS011;53770;42.334;23.550;2022-07-23T12:17:17;44.30;;;41.25;;
66860;SDS011;53770;42.334;23.550;2022-07-23T12:19:44;47.90;;;44.50;;
66860;SDS011;53770;42.334;23.550;2022-07-23T12:22:12;47.27;;;44.10;;
66860;SDS011;53770;42.334;23.550;2022-07-23T12:24:55;46.10;;;42.85;;
66860;SDS011;53770;42.334;23.550;2022-07-23T12:27:24;47.58;;;44.28;;
66860;SDS011;53770;42.334;23.550;2022-07-23T12:29:53;48.05;;;44.83;;
66860;SDS011;53770;42.334;23.550;2022-07-23T12:32:20;50.40;;;47.00;;
66860;SDS011;53770;42.334;23.550;2022-07-23T12:34:49;47.77;;;44.27;;
66860;SDS011;53770;42.334;23.550;2022-07-23T12:37:27;48.92;;;45.58;;
66860;SDS011;53770;42.334;23.550;2022-07-23T12:39:54;47.88;;;44.50;;
66860;SDS011;53770;42.334;23.550;2022-07-23T12:42:21;48.55;;;45.08;;
66860;SDS011;53770;42.334;23.550;2022-07-23T12:45:07;47.10;;;43.55;;
66860;SDS011;53770;42.334;23.550;2022-07-23T12:47:56;46.40;;;43.07;;
66860;SDS011;53770;42.334;23.550;2022-07-23T12:50:33;47.10;;;43.45;;
66860;SDS011;53770;42.334;23.550;2022-07-23T12:53:09;48.40;;;44.85;;
66860;SDS011;53770;42.334;23.550;2022-07-23T12:55:38;43.38;;;40.15;;
66860;SDS011;53770;42.334;23.550;2022-07-23T12:58:06;46.00;;;42.70;;
66860;SDS011;53770;42.334;23.550;2022-07-23T13:03:31;49.28;;;45.67;;
66860;SDS011;53770;42.334;23.550;2022-07-23T13:06:01;47.47;;;44.20;;
66860;SDS011;53770;42.334;23.550;2022-07-23T13:08:30;51.28;;;47.38;;
66860;SDS011;53770;42.334;23.550;2022-07-23T13:10:58;48.33;;;44.88;;
66860;SDS011;53770;42.334;23.550;2022-07-23T13:13:26;40.83;;;37.87;;
66860;SDS011;53770;42.334;23.550;2022-07-23T13:15:54;44.00;;;40.30;;
66860;SDS011;53770;42.334;23.550;2022-07-23T13:18:22;44.30;;;41.20;;
66860;SDS011;53770;42.334;23.550;2022-07-23T13:20:49;41.60;;;38.53;;
66860;SDS011;53770;42.334;23.550;2022-07-23T13:23:16;42.35;;;39.20;;
66860;SDS011;53770;42.334;23.550;2022-07-23T13:25:44;39.07;;;35.67;;
66860;SDS011;53770;42.334;23.550;2022-07-23T13:28:11;39.50;;;36.63;;
66860;SDS011;53770;42.334;23.550;2022-07-23T13:30:39;38.15;;;35.17;;
66860;SDS011;53770;42.334;23.550;2022-07-23T13:33:07;39.33;;;36.13;;
66860;SDS011;53770;42.334;23.550;2022-07-23T13:35:36;36.60;;;33.83;;
66860;SDS011;53770;42.334;23.550;2022-07-23T13:38:03;35.53;;;33.00;;
66860;SDS011;53770;42.334;23.550;2022-07-23T13:40:32;36.40;;;33.58;;
66860;SDS011;53770;42.334;23.550;2022-07-23T13:42:59;35.35;;;32.30;;
66860;SDS011;53770;42.334;23.550;2022-07-23T13:45:26;33.42;;;30.55;;
66860;SDS011;53770;42.334;23.550;2022-07-23T13:47:53;30.05;;;27.65;;
66860;SDS011;53770;42.334;23.550;2022-07-23T13:50:20;33.60;;;31.27;;
66860;SDS011;53770;42.334;23.550;2022-07-23T13:52:48;31.15;;;28.80;;
66860;SDS011;53770;42.334;23.550;2022-07-23T13:55:15;30.20;;;27.58;;
66860;SDS011;53770;42.334;23.550;2022-07-23T13:57:42;30.40;;;27.75;;
66860;SDS011;53770;42.334;23.550;2022-07-23T14:00:09;30.88;;;28.38;;
66860;SDS011;53770;42.334;23.550;2022-07-23T14:02:37;27.57;;;25.30;;
66860;SDS011;53770;42.334;23.550;2022-07-23T14:05:06;29.65;;;26.63;;
66860;SDS011;53770;42.334;23.550;2022-07-23T14:07:34;28.05;;;25.75;;
66860;SDS011;53770;42.334;23.550;2022-07-23T14:10:03;24.52;;;22.23;;
66860;SDS011;53770;42.334;23.550;2022-07-23T14:12:31;25.27;;;22.33;;
66860;SDS011;53770;42.334;23.550;2022-07-23T14:14:57;20.87;;;18.73;;
66860;SDS011;53770;42.334;23.550;2022-07-23T14:17:25;22.08;;;16.40;;
66860;SDS011;53770;42.334;23.550;2022-07-23T14:19:52;16.88;;;13.73;;
66860;SDS011;53770;42.334;23.550;2022-07-23T14:22:19;16.92;;;12.80;;
66860;SDS011;53770;42.334;23.550;2022-07-23T14:24:46;14.02;;;10.68;;
66860;SDS011;53770;42.334;23.550;2022-07-23T14:27:14;16.87;;;10.73;;
66860;SDS011;53770;42.334;23.550;2022-07-23T14:29:41;16.05;;;8.18;;
66860;SDS011;53770;42.334;23.550;2022-07-23T14:32:08;17.00;;;10.63;;
66860;SDS011;53770;42.334;23.550;2022-07-23T14:34:35;18.02;;;10.70;;
66860;SDS011;53770;42.334;23.550;2022-07-23T14:37:01;17.70;;;8.73;;
66860;SDS011;53770;42.334;23.550;2022-07-23T14:39:28;11.83;;;6.77;;
66860;SDS011;53770;42.334;23.550;2022-07-23T14:41:55;15.32;;;6.22;;
66860;SDS011;53770;42.334;23.550;2022-07-23T14:44:23;15.15;;;6.88;;